createdAt,value
2022-09-16T00:00:01.122Z,14.6
2022-09-16T00:01:04.728Z,14.6
2022-09-16T00:02:02.535Z,14.6
2022-09-16T00:03:01.144Z,14.6
2022-09-16T00:04:01.136Z,14.6
2022-09-16T00:05:01.612Z,14.5
2022-09-16T00:06:06.638Z,14.6
2022-09-16T00:07:02.121Z,14.6
2022-09-16T00:08:01.864Z,14.6
2022-09-16T00:09:01.074Z,14.6
2022-09-16T00:10:01.107Z,14.6
2022-09-16T00:11:09.825Z,14.6
2022-09-16T00:12:01.391Z,14.5
2022-09-16T00:13:02.027Z,14.5
2022-09-16T00:14:01.116Z,14.6
2022-09-16T00:15:01.116Z,14.5
2022-09-16T00:16:12.337Z,14.5
2022-09-16T00:17:02.880Z,14.5
2022-09-16T00:18:02.854Z,14.5
2022-09-16T00:19:01.111Z,14.5
2022-09-16T00:20:01.054Z,14.5
2022-09-16T00:21:14.532Z,14.4
2022-09-16T00:22:01.063Z,14.4
2022-09-16T00:23:01.081Z,14.4
2022-09-16T00:24:01.087Z,14.4
2022-09-16T00:25:01.037Z,14.4
2022-09-16T00:26:16.124Z,14.3
2022-09-16T00:27:01.662Z,14.3
2022-09-16T00:28:01.109Z,14.4
2022-09-16T00:29:01.114Z,14.4
2022-09-16T00:30:01.126Z,14.4
2022-09-16T00:31:01.211Z,14.4
2022-09-16T00:32:01.125Z,14.5
2022-09-16T00:33:01.144Z,14.5
2022-09-16T00:34:01.232Z,14.5
2022-09-16T00:35:01.344Z,14.5
2022-09-16T00:36:01.357Z,14.5
2022-09-16T00:37:01.076Z,14.5
2022-09-16T00:38:01.680Z,14.5
2022-09-16T00:39:01.087Z,14.5
2022-09-16T00:40:01.121Z,14.5
2022-09-16T00:41:01.091Z,14.5
2022-09-16T00:42:01.506Z,14.5
2022-09-16T00:43:01.229Z,14.5
2022-09-16T00:44:01.116Z,14.5
2022-09-16T00:45:01.106Z,14.5
2022-09-16T00:46:01.034Z,14.5
2022-09-16T00:47:01.131Z,14.5
2022-09-16T00:48:01.051Z,14.5
2022-09-16T00:49:01.152Z,14.5
2022-09-16T00:50:01.813Z,14.5
2022-09-16T00:51:01.279Z,14.5
2022-09-16T00:52:01.043Z,14.5
2022-09-16T00:53:01.092Z,14.5
2022-09-16T00:54:01.085Z,14.5
2022-09-16T00:55:01.097Z,14.5
2022-09-16T00:56:01.106Z,14.5
2022-09-16T00:57:01.321Z,14.5
2022-09-16T00:58:01.196Z,14.5
2022-09-16T00:59:01.115Z,14.5
2022-09-16T01:00:01.552Z,14.5
2022-09-16T01:01:01.287Z,14.5
2022-09-16T01:02:01.244Z,14.5
2022-09-16T01:03:01.142Z,14.5
2022-09-16T01:04:01.170Z,14.5
2022-09-16T01:05:01.173Z,14.5
2022-09-16T01:06:01.056Z,14.5
2022-09-16T01:07:01.046Z,14.4
2022-09-16T01:08:01.446Z,14.4
2022-09-16T01:09:01.064Z,14.3
2022-09-16T01:10:00.761Z,14.3
2022-09-16T01:11:00.454Z,14.3
2022-09-16T01:12:00.413Z,14.3
2022-09-16T01:13:00.168Z,14.3
2022-09-16T01:13:59.821Z,14.3
2022-09-16T01:15:01.776Z,14.3
2022-09-16T01:16:01.579Z,14.2
2022-09-16T01:17:01.167Z,14.2
2022-09-16T01:18:01.337Z,14.2
2022-09-16T01:19:02.642Z,14.1
2022-09-16T01:20:01.416Z,14.1
2022-09-16T01:21:01.718Z,14.1
2022-09-16T01:22:01.854Z,14.1
2022-09-16T01:23:01.334Z,14.1
2022-09-16T01:24:01.981Z,14.1
2022-09-16T01:25:01.780Z,14.1
2022-09-16T01:26:01.076Z,14.1
2022-09-16T01:27:01.190Z,14.1
2022-09-16T01:28:01.097Z,14
2022-09-16T01:29:01.092Z,14.1
2022-09-16T01:30:01.096Z,14
2022-09-16T01:31:01.173Z,14
2022-09-16T01:32:01.961Z,14
2022-09-16T01:33:01.133Z,14
2022-09-16T01:34:01.129Z,14
2022-09-16T01:35:01.144Z,14
2022-09-16T01:36:01.153Z,14
2022-09-16T01:37:01.059Z,14
2022-09-16T01:38:01.439Z,14
2022-09-16T01:39:01.064Z,14
2022-09-16T01:40:01.195Z,14
2022-09-16T01:41:01.063Z,14
2022-09-16T01:42:01.046Z,14
2022-09-16T01:43:01.101Z,14.1
2022-09-16T01:44:01.353Z,14.1
2022-09-16T01:45:03.879Z,14.1
2022-09-16T01:46:01.103Z,14.1
2022-09-16T01:47:03.890Z,14.1
2022-09-16T01:48:01.366Z,14.1
2022-09-16T01:49:01.120Z,14.1
2022-09-16T01:50:01.548Z,14.1
2022-09-16T01:51:01.265Z,14.1
2022-09-16T01:52:08.248Z,14.1
2022-09-16T01:53:01.978Z,14.1
2022-09-16T01:54:02.073Z,14.1
2022-09-16T01:55:01.238Z,14.1
2022-09-16T01:56:01.233Z,14.1
2022-09-16T01:57:11.794Z,14.1
2022-09-16T01:58:01.768Z,14.1
2022-09-16T01:59:01.800Z,14.1
2022-09-16T02:00:01.940Z,14.1
2022-09-16T02:01:01.102Z,14.1
2022-09-16T02:02:16.226Z,14.1
2022-09-16T02:03:01.620Z,14.1
2022-09-16T02:04:02.220Z,14.1
2022-09-16T02:05:01.949Z,14.1
2022-09-16T02:06:01.971Z,14.1
2022-09-16T02:07:01.134Z,14.1
2022-09-16T02:08:01.158Z,14
2022-09-16T02:09:01.458Z,14
2022-09-16T02:10:02.932Z,14.1
2022-09-16T02:11:01.062Z,14.1
2022-09-16T02:12:01.067Z,14.1
2022-09-16T02:13:01.084Z,14.1
2022-09-16T02:14:00.935Z,14.1
2022-09-16T02:15:01.090Z,14.1
2022-09-16T02:16:01.193Z,14.1
2022-09-16T02:17:01.105Z,14.1
2022-09-16T02:18:01.122Z,14.1
2022-09-16T02:19:01.032Z,14.1
2022-09-16T02:20:01.120Z,14.1
2022-09-16T02:21:01.138Z,14.1
2022-09-16T02:22:01.152Z,14.1
2022-09-16T02:23:01.531Z,14
2022-09-16T02:24:01.046Z,14
2022-09-16T02:25:01.068Z,14.1
2022-09-16T02:26:01.068Z,14.1
2022-09-16T02:27:01.068Z,14.1
2022-09-16T02:28:01.078Z,14
2022-09-16T02:29:01.072Z,14
2022-09-16T02:30:01.106Z,14
2022-09-16T02:31:01.217Z,14
2022-09-16T02:32:01.300Z,14
2022-09-16T02:33:01.491Z,14
2022-09-16T02:34:01.115Z,14
2022-09-16T02:35:01.135Z,14
2022-09-16T02:36:01.118Z,14
2022-09-16T02:37:01.151Z,14
2022-09-16T02:38:01.143Z,13.9
2022-09-16T02:39:01.196Z,13.9
2022-09-16T02:40:01.257Z,13.9
2022-09-16T02:41:01.454Z,13.9
2022-09-16T02:42:02.081Z,13.9
2022-09-16T02:43:01.047Z,13.9
2022-09-16T02:44:01.772Z,13.9
2022-09-16T02:45:00.763Z,13.8
2022-09-16T02:46:00.476Z,13.8
2022-09-16T02:47:00.161Z,13.8
2022-09-16T02:47:59.872Z,13.8
2022-09-16T02:49:01.498Z,13.8
2022-09-16T02:50:01.494Z,13.8
2022-09-16T02:51:01.137Z,13.8
2022-09-16T02:52:01.142Z,13.8
2022-09-16T02:53:01.172Z,13.8
2022-09-16T02:54:01.040Z,13.8
2022-09-16T02:55:01.136Z,13.8
2022-09-16T02:56:01.048Z,13.8
2022-09-16T02:57:01.052Z,13.8
2022-09-16T02:58:01.456Z,13.8
2022-09-16T02:59:01.028Z,13.8
2022-09-16T03:00:01.112Z,13.8
2022-09-16T03:01:00.697Z,13.8
2022-09-16T03:02:00.479Z,13.7
2022-09-16T03:03:00.232Z,13.7
2022-09-16T03:03:59.962Z,13.7
2022-09-16T03:04:59.526Z,13.7
2022-09-16T03:06:01.092Z,13.7
2022-09-16T03:07:01.094Z,13.7
2022-09-16T03:08:01.125Z,13.6
2022-09-16T03:09:01.080Z,13.6
2022-09-16T03:10:01.597Z,13.6
2022-09-16T03:11:01.158Z,13.6
2022-09-16T03:12:01.067Z,13.6
2022-09-16T03:13:01.061Z,13.6
2022-09-16T03:14:01.147Z,13.6
2022-09-16T03:15:01.101Z,13.6
2022-09-16T03:16:01.152Z,13.6
2022-09-16T03:17:01.100Z,13.6
2022-09-16T03:18:01.176Z,13.6
2022-09-16T03:19:01.487Z,13.6
2022-09-16T03:20:01.113Z,13.6
2022-09-16T03:21:01.131Z,13.7
2022-09-16T03:22:01.197Z,13.7
2022-09-16T03:23:03.587Z,13.7
2022-09-16T03:24:01.027Z,13.7
2022-09-16T03:25:01.035Z,13.7
2022-09-16T03:26:01.042Z,13.8
2022-09-16T03:27:01.795Z,13.8
2022-09-16T03:28:06.321Z,13.8
2022-09-16T03:29:02.262Z,13.8
2022-09-16T03:30:03.100Z,13.8
2022-09-16T03:31:01.980Z,13.8
2022-09-16T03:32:01.102Z,13.8
2022-09-16T03:33:09.390Z,13.8
2022-09-16T03:34:01.385Z,13.7
2022-09-16T03:35:01.319Z,13.7
2022-09-16T03:36:01.486Z,13.7
2022-09-16T03:37:01.123Z,13.7
2022-09-16T03:38:13.011Z,13.7
2022-09-16T03:39:01.147Z,13.6
2022-09-16T03:40:01.061Z,13.6
2022-09-16T03:41:01.134Z,13.6
2022-09-16T03:42:01.062Z,13.6
2022-09-16T03:43:15.137Z,13.7
2022-09-16T03:44:04.476Z,13.7
2022-09-16T03:45:01.301Z,13.6
2022-09-16T03:46:01.571Z,13.7
2022-09-16T03:47:02.082Z,13.7
2022-09-16T03:48:16.745Z,13.7
2022-09-16T03:49:01.107Z,13.7
2022-09-16T03:50:01.022Z,13.7
2022-09-16T03:51:01.099Z,13.8
2022-09-16T03:52:01.118Z,13.8
2022-09-16T03:53:01.115Z,13.8
2022-09-16T03:54:01.139Z,13.8
2022-09-16T03:55:01.306Z,13.7
2022-09-16T03:56:01.516Z,13.7
2022-09-16T03:57:01.181Z,13.7
2022-09-16T03:58:01.054Z,13.7
2022-09-16T03:59:00.958Z,13.7
2022-09-16T04:00:01.847Z,13.7
2022-09-16T04:01:01.068Z,13.7
2022-09-16T04:02:01.159Z,13.7
2022-09-16T04:03:01.107Z,13.8
2022-09-16T04:04:01.438Z,13.7
2022-09-16T04:05:02.141Z,13.7
2022-09-16T04:06:02.293Z,13.6
2022-09-16T04:07:02.032Z,13.6
2022-09-16T04:08:01.915Z,13.7
2022-09-16T04:09:01.137Z,13.6
2022-09-16T04:10:00.889Z,13.6
2022-09-16T04:11:01.134Z,13.6
2022-09-16T04:12:01.159Z,13.6
2022-09-16T04:13:01.044Z,13.6
2022-09-16T04:14:01.161Z,13.6
2022-09-16T04:15:01.265Z,13.6
2022-09-16T04:16:01.189Z,13.6
2022-09-16T04:17:01.088Z,13.6
2022-09-16T04:18:01.069Z,13.6
2022-09-16T04:19:01.081Z,13.6
2022-09-16T04:20:01.251Z,13.6
2022-09-16T04:21:01.258Z,13.6
2022-09-16T04:22:01.309Z,13.6
2022-09-16T04:23:01.486Z,13.6
2022-09-16T04:24:01.133Z,13.5
2022-09-16T04:25:01.030Z,13.5
2022-09-16T04:26:01.119Z,13.5
2022-09-16T04:27:01.137Z,13.5
2022-09-16T04:28:00.794Z,13.5
2022-09-16T04:29:01.419Z,13.5
2022-09-16T04:30:02.504Z,13.5
2022-09-16T04:31:01.331Z,13.5
2022-09-16T04:32:01.372Z,13.5
2022-09-16T04:33:01.076Z,13.5
2022-09-16T04:34:01.469Z,13.5
2022-09-16T04:35:01.031Z,13.5
2022-09-16T04:36:01.087Z,13.4
2022-09-16T04:37:01.119Z,13.4
2022-09-16T04:38:01.425Z,13.4
2022-09-16T04:39:01.145Z,13.3
2022-09-16T04:40:04.730Z,13.3
2022-09-16T04:41:01.549Z,13.3
2022-09-16T04:42:01.515Z,13.3
2022-09-16T04:43:01.257Z,13.3
2022-09-16T04:44:00.820Z,13.2
2022-09-16T04:45:00.440Z,13.2
2022-09-16T04:46:00.253Z,13.2
2022-09-16T04:46:59.863Z,13.2
2022-09-16T04:48:02.119Z,13.2
2022-09-16T04:49:01.507Z,13.1
2022-09-16T04:50:01.210Z,13.1
2022-09-16T04:51:00.973Z,13.1
2022-09-16T04:52:01.109Z,13.1
2022-09-16T04:53:01.025Z,13.1
2022-09-16T04:54:01.127Z,13.1
2022-09-16T04:55:01.263Z,13.1
2022-09-16T04:56:01.829Z,13.2
2022-09-16T04:57:01.689Z,13.1
2022-09-16T04:58:01.139Z,13.1
2022-09-16T04:59:01.148Z,13.1
2022-09-16T05:00:01.044Z,13.1
2022-09-16T05:01:01.072Z,13.1
2022-09-16T05:02:01.222Z,13.1
2022-09-16T05:03:01.267Z,13.1
2022-09-16T05:04:01.131Z,13.1
2022-09-16T05:05:01.713Z,13.2
2022-09-16T05:06:01.492Z,13.2
2022-09-16T05:07:01.215Z,13.2
2022-09-16T05:08:00.887Z,13.3
2022-09-16T05:09:03.451Z,13.3
2022-09-16T05:10:01.105Z,13.3
2022-09-16T05:11:00.800Z,13.2
2022-09-16T05:12:00.516Z,13.2
2022-09-16T05:13:00.106Z,13.2
2022-09-16T05:14:07.178Z,13.2
2022-09-16T05:15:01.133Z,13.1
2022-09-16T05:16:01.375Z,13.1
2022-09-16T05:17:01.065Z,13.1
2022-09-16T05:18:01.055Z,13.1
2022-09-16T05:19:11.344Z,13.1
2022-09-16T05:20:00.627Z,13.1
2022-09-16T05:21:00.262Z,13.2
2022-09-16T05:21:59.856Z,13.2
2022-09-16T05:23:01.818Z,13.2
2022-09-16T05:24:13.860Z,13.3
2022-09-16T05:25:01.789Z,13.5
2022-09-16T05:26:01.104Z,13.6
2022-09-16T05:27:01.133Z,13.6
2022-09-16T05:28:01.375Z,13.7
2022-09-16T05:29:14.937Z,13.8
2022-09-16T05:30:01.508Z,13.9
2022-09-16T05:31:00.751Z,14
2022-09-16T05:32:00.453Z,14.1
2022-09-16T05:33:00.035Z,14.2
2022-09-16T05:33:59.627Z,14.3
2022-09-16T05:35:01.733Z,14.3
2022-09-16T05:36:01.760Z,14.3
2022-09-16T05:37:01.987Z,14.3
2022-09-16T05:38:01.259Z,14.3
2022-09-16T05:39:22.292Z,14.2
2022-09-16T05:40:01.055Z,14.2
2022-09-16T05:41:00.895Z,14.2
2022-09-16T05:42:00.596Z,14.1
2022-09-16T05:43:00.315Z,14.1
2022-09-16T05:43:59.986Z,14.1
2022-09-16T05:44:59.568Z,14
2022-09-16T05:46:01.605Z,14
2022-09-16T05:47:01.552Z,14
2022-09-16T05:48:01.476Z,14
2022-09-16T05:49:02.085Z,13.9
2022-09-16T05:50:01.843Z,13.8
2022-09-16T05:51:00.751Z,13.8
2022-09-16T05:52:00.388Z,13.7
2022-09-16T05:52:59.972Z,13.7
2022-09-16T05:54:00.028Z,13.6
2022-09-16T05:54:59.647Z,13.6
2022-09-16T05:56:01.780Z,13.6
2022-09-16T05:57:06.671Z,13.6
2022-09-16T05:58:01.342Z,13.6
2022-09-16T05:59:01.061Z,13.6
2022-09-16T06:00:01.236Z,13.6
2022-09-16T06:01:01.167Z,13.6
2022-09-16T06:02:04.360Z,13.6
2022-09-16T06:03:01.073Z,13.6
2022-09-16T06:04:01.062Z,13.6
2022-09-16T06:05:01.683Z,13.7
2022-09-16T06:06:01.467Z,13.8
2022-09-16T06:07:01.451Z,13.8
2022-09-16T06:08:02.169Z,13.8
2022-09-16T06:09:01.084Z,13.7
2022-09-16T06:10:01.087Z,13.7
2022-09-16T06:11:00.782Z,13.7
2022-09-16T06:12:02.289Z,13.7
2022-09-16T06:13:02.549Z,13.6
2022-09-16T06:14:01.488Z,13.6
2022-09-16T06:15:02.249Z,13.6
2022-09-16T06:16:10.143Z,13.5
2022-09-16T06:17:09.189Z,13.6
2022-09-16T06:18:06.092Z,13.5
2022-09-16T06:19:01.394Z,13.6
2022-09-16T06:20:01.777Z,13.6
2022-09-16T06:21:02.022Z,13.7
2022-09-16T06:22:01.086Z,13.7
2022-09-16T06:23:01.101Z,13.7
2022-09-16T06:24:01.076Z,13.7
2022-09-16T06:25:01.107Z,13.6
2022-09-16T06:26:01.118Z,13.6
2022-09-16T06:27:01.114Z,13.6
2022-09-16T06:28:01.113Z,13.6
2022-09-16T06:29:01.146Z,13.6
2022-09-16T06:30:01.131Z,13.6
2022-09-16T06:31:01.031Z,13.6
2022-09-16T06:32:01.285Z,13.6
2022-09-16T06:33:01.338Z,13.6
2022-09-16T06:34:01.144Z,13.5
2022-09-16T06:35:00.904Z,13.6
2022-09-16T06:36:01.040Z,13.6
2022-09-16T06:37:01.234Z,13.6
2022-09-16T06:38:01.099Z,13.6
2022-09-16T06:39:01.210Z,13.5
2022-09-16T06:40:01.166Z,13.5
2022-09-16T06:41:01.101Z,13.5
2022-09-16T06:42:01.679Z,13.5
2022-09-16T06:43:01.702Z,13.5
2022-09-16T06:44:02.455Z,13.5
2022-09-16T06:45:03.326Z,13.6
2022-09-16T06:46:02.951Z,13.6
2022-09-16T06:47:01.363Z,13.6
2022-09-16T06:48:01.146Z,13.6
2022-09-16T06:49:05.443Z,13.6
2022-09-16T06:50:06.268Z,13.6
2022-09-16T06:51:01.984Z,13.6
2022-09-16T06:52:01.486Z,13.6
2022-09-16T06:53:01.077Z,13.6
2022-09-16T06:54:01.088Z,13.6
2022-09-16T06:55:08.632Z,13.6
2022-09-16T06:56:01.096Z,13.6
2022-09-16T06:57:01.202Z,13.6
2022-09-16T06:58:01.104Z,13.6
2022-09-16T06:59:01.141Z,13.6
2022-09-16T07:00:12.092Z,13.6
2022-09-16T07:01:01.129Z,13.6
2022-09-16T07:02:01.193Z,13.7
2022-09-16T07:03:01.772Z,13.7
2022-09-16T07:04:01.141Z,13.8
2022-09-16T07:05:14.449Z,13.8
2022-09-16T07:06:01.872Z,13.8
2022-09-16T07:07:10.009Z,13.7
2022-09-16T07:08:00.748Z,13.8
2022-09-16T07:09:00.691Z,13.8
2022-09-16T07:10:00.354Z,13.8
2022-09-16T07:10:59.972Z,13.8
2022-09-16T07:11:59.670Z,13.8
2022-09-16T07:13:01.840Z,13.8
2022-09-16T07:14:01.122Z,13.9
2022-09-16T07:15:01.116Z,13.9
2022-09-16T07:16:16.495Z,13.9
2022-09-16T07:17:01.550Z,13.9
2022-09-16T07:18:01.255Z,13.9
2022-09-16T07:19:01.468Z,13.9
2022-09-16T07:20:01.442Z,13.9
2022-09-16T07:21:02.092Z,13.8
2022-09-16T07:22:01.052Z,13.9
2022-09-16T07:23:01.085Z,13.9
2022-09-16T07:24:01.071Z,13.9
2022-09-16T07:25:01.165Z,13.9
2022-09-16T07:26:01.541Z,13.9
2022-09-16T07:27:02.167Z,13.9
2022-09-16T07:28:01.381Z,13.9
2022-09-16T07:29:02.240Z,13.9
2022-09-16T07:30:02.690Z,14
2022-09-16T07:31:01.673Z,14
2022-09-16T07:32:01.779Z,14.1
2022-09-16T07:33:01.200Z,14.1
2022-09-16T07:34:04.022Z,14.2
2022-09-16T07:35:01.148Z,14.3
2022-09-16T07:36:01.269Z,14.3
2022-09-16T07:37:01.463Z,14.3
2022-09-16T07:38:01.210Z,14.3
2022-09-16T07:39:01.086Z,14.2
2022-09-16T07:40:02.151Z,14.2
2022-09-16T07:41:01.424Z,14.2
2022-09-16T07:42:05.708Z,14.2
2022-09-16T07:43:02.090Z,14.2
2022-09-16T07:44:01.494Z,14.2
2022-09-16T07:45:01.215Z,14.2
2022-09-16T07:46:01.175Z,14.3
2022-09-16T07:47:01.413Z,14.3
2022-09-16T07:48:01.494Z,14.3
2022-09-16T07:49:01.195Z,14.3
2022-09-16T07:50:01.122Z,14.3
2022-09-16T07:51:01.454Z,14.4
2022-09-16T07:52:02.062Z,14.5
2022-09-16T07:53:01.194Z,14.5
2022-09-16T07:54:01.062Z,14.6
2022-09-16T07:55:01.175Z,14.6
2022-09-16T07:56:01.215Z,14.6
2022-09-16T07:57:01.071Z,14.6
2022-09-16T07:58:01.084Z,14.6
2022-09-16T07:59:01.186Z,14.6
2022-09-16T08:00:01.094Z,14.6
2022-09-16T08:01:04.634Z,14.6
2022-09-16T08:02:01.586Z,14.6
2022-09-16T08:03:01.761Z,14.7
2022-09-16T08:04:01.308Z,14.8
2022-09-16T08:05:01.132Z,14.8
2022-09-16T08:06:01.046Z,14.8
2022-09-16T08:07:01.141Z,14.8
2022-09-16T08:08:01.424Z,14.7
2022-09-16T08:09:10.015Z,14.8
2022-09-16T08:10:02.866Z,14.7
2022-09-16T08:11:00.879Z,14.7
2022-09-16T08:12:01.072Z,14.8
2022-09-16T08:13:01.169Z,14.8
2022-09-16T08:14:01.182Z,14.7
2022-09-16T08:15:01.433Z,14.7
2022-09-16T08:16:01.114Z,14.7
2022-09-16T08:17:01.052Z,14.8
2022-09-16T08:18:01.057Z,14.8
2022-09-16T08:19:01.121Z,14.8
2022-09-16T08:20:01.123Z,14.8
2022-09-16T08:21:01.543Z,14.8
2022-09-16T08:22:01.548Z,14.8
2022-09-16T08:23:02.156Z,14.8
2022-09-16T08:24:01.216Z,14.8
2022-09-16T08:25:01.079Z,14.8
2022-09-16T08:26:02.832Z,14.8
2022-09-16T08:27:01.361Z,14.8
2022-09-16T08:28:01.371Z,14.8
2022-09-16T08:29:10.140Z,14.8
2022-09-16T08:30:01.092Z,14.9
2022-09-16T08:31:05.202Z,14.9
2022-09-16T08:32:01.476Z,15
2022-09-16T08:33:01.572Z,15
2022-09-16T08:34:01.231Z,15
2022-09-16T08:35:01.128Z,15
2022-09-16T08:36:09.823Z,15
2022-09-16T08:37:01.424Z,15.1
2022-09-16T08:38:01.739Z,15.1
2022-09-16T08:39:01.490Z,15.1
2022-09-16T08:40:01.670Z,15.1
2022-09-16T08:41:12.741Z,15.1
2022-09-16T08:42:01.035Z,15.1
2022-09-16T08:43:01.081Z,15.1
2022-09-16T08:44:01.070Z,15.1
2022-09-16T08:45:01.080Z,15.2
2022-09-16T08:46:15.681Z,15.2
2022-09-16T08:47:01.292Z,15.2
2022-09-16T08:48:02.230Z,15.2
2022-09-16T08:49:04.153Z,15.2
2022-09-16T08:50:01.206Z,15.2
2022-09-16T08:51:00.811Z,15.2
2022-09-16T08:52:00.428Z,15.3
2022-09-16T08:52:59.986Z,15.3
2022-09-16T08:53:59.587Z,15.3
2022-09-16T08:55:01.737Z,15.3
2022-09-16T08:56:01.261Z,15.3
2022-09-16T08:57:01.077Z,15.3
2022-09-16T08:58:01.086Z,15.3
2022-09-16T08:59:01.648Z,15.3
2022-09-16T09:00:01.552Z,15.4
2022-09-16T09:01:01.525Z,15.4
2022-09-16T09:02:08.084Z,15.4
2022-09-16T09:03:01.407Z,15.5
2022-09-16T09:04:01.099Z,15.5
2022-09-16T09:05:01.300Z,15.5
2022-09-16T09:06:01.062Z,15.5
2022-09-16T09:07:01.613Z,15.5
2022-09-16T09:08:01.253Z,15.5
2022-09-16T09:09:01.443Z,15.5
2022-09-16T09:10:01.111Z,15.5
2022-09-16T09:11:01.059Z,15.5
2022-09-16T09:12:00.741Z,15.5
2022-09-16T09:13:01.350Z,15.5
2022-09-16T09:14:02.513Z,15.5
2022-09-16T09:15:01.540Z,15.5
2022-09-16T09:16:01.197Z,15.5
2022-09-16T09:17:01.465Z,15.6
2022-09-16T09:18:01.091Z,15.6
2022-09-16T09:19:01.098Z,15.6
2022-09-16T09:20:01.100Z,15.6
2022-09-16T09:21:01.044Z,15.6
2022-09-16T09:22:01.455Z,15.6
2022-09-16T09:23:01.565Z,15.7
2022-09-16T09:24:02.768Z,15.8
2022-09-16T09:25:01.877Z,15.8
2022-09-16T09:26:01.848Z,15.9
2022-09-16T09:27:01.925Z,16
2022-09-16T09:28:02.578Z,16
2022-09-16T09:29:01.030Z,16
2022-09-16T09:30:01.028Z,16
2022-09-16T09:31:01.505Z,16
2022-09-16T09:32:01.037Z,16
2022-09-16T09:33:01.184Z,16
2022-09-16T09:34:01.132Z,16
2022-09-16T09:35:01.036Z,16
2022-09-16T09:36:01.125Z,16
2022-09-16T09:37:01.135Z,15.9
2022-09-16T09:38:00.824Z,15.8
2022-09-16T09:39:00.667Z,15.8
2022-09-16T09:40:01.425Z,15.8
2022-09-16T09:41:01.460Z,15.7
2022-09-16T09:42:02.028Z,15.7
2022-09-16T09:43:01.051Z,15.7
2022-09-16T09:44:01.690Z,15.6
2022-09-16T09:45:02.410Z,15.6
2022-09-16T09:46:00.914Z,15.6
2022-09-16T09:47:00.594Z,15.6
2022-09-16T09:48:00.430Z,15.6
2022-09-16T09:49:00.169Z,15.7
2022-09-16T09:50:00.203Z,15.7
2022-09-16T09:51:00.247Z,15.7
2022-09-16T09:51:59.880Z,15.7
2022-09-16T09:52:59.581Z,15.8
2022-09-16T09:54:01.160Z,15.8
2022-09-16T09:55:01.126Z,15.8
2022-09-16T09:56:01.148Z,15.8
2022-09-16T09:57:01.046Z,15.8
2022-09-16T09:58:01.068Z,15.8
2022-09-16T09:59:01.040Z,15.8
2022-09-16T10:00:01.035Z,15.7
2022-09-16T10:01:02.107Z,15.7
2022-09-16T10:02:01.530Z,15.6
2022-09-16T10:03:01.085Z,15.6
2022-09-16T10:04:01.085Z,15.6
2022-09-16T10:05:01.352Z,15.7
2022-09-16T10:06:02.021Z,15.7
2022-09-16T10:08:01.106Z,15.7
2022-09-16T10:09:01.137Z,15.7
2022-09-16T10:10:01.449Z,15.7
2022-09-16T10:11:01.271Z,15.7
2022-09-16T10:12:01.269Z,15.7
2022-09-16T10:13:01.974Z,15.7
2022-09-16T10:14:01.735Z,15.7
2022-09-16T10:15:01.098Z,15.6
2022-09-16T10:16:01.137Z,15.7
2022-09-16T10:17:01.079Z,15.7
2022-09-16T10:18:01.075Z,15.8
2022-09-16T10:19:01.087Z,15.8
2022-09-16T10:20:01.090Z,15.8
2022-09-16T10:21:03.969Z,15.8
2022-09-16T10:22:02.145Z,15.8
2022-09-16T10:23:01.108Z,15.8
2022-09-16T10:24:01.046Z,15.8
2022-09-16T10:25:01.121Z,15.9
2022-09-16T10:26:01.143Z,16
2022-09-16T10:27:04.085Z,16
2022-09-16T10:28:01.046Z,16.1
2022-09-16T10:29:01.059Z,16.1
2022-09-16T10:30:00.539Z,16.1
2022-09-16T10:31:00.255Z,16.1
2022-09-16T10:32:05.602Z,16.2
2022-09-16T10:33:01.474Z,16.2
2022-09-16T10:34:01.091Z,16.2
2022-09-16T10:35:01.088Z,16.2
2022-09-16T10:36:01.108Z,16.2
2022-09-16T10:37:08.968Z,16.2
2022-09-16T10:38:01.396Z,16.3
2022-09-16T10:39:04.621Z,16.3
2022-09-16T10:40:02.166Z,16.2
2022-09-16T10:41:01.045Z,16.2
2022-09-16T10:42:11.335Z,16.2
2022-09-16T10:43:01.345Z,16.2
2022-09-16T10:44:01.930Z,16.2
2022-09-16T10:45:02.735Z,16.2
2022-09-16T10:46:01.977Z,16.1
2022-09-16T10:47:14.751Z,16.1
2022-09-16T10:48:03.458Z,16
2022-09-16T10:49:02.148Z,16
2022-09-16T10:50:01.603Z,15.9
2022-09-16T10:51:01.069Z,15.8
2022-09-16T10:52:00.806Z,15.8
2022-09-16T10:53:00.369Z,15.7
2022-09-16T10:53:59.969Z,15.6
2022-09-16T10:54:59.592Z,15.5
2022-09-16T10:56:01.682Z,15.6
2022-09-16T10:57:01.128Z,15.6
2022-09-16T10:58:01.145Z,15.6
2022-09-16T10:59:02.131Z,15.6
2022-09-16T11:00:01.051Z,15.7
2022-09-16T11:01:01.831Z,15.8
2022-09-16T11:02:01.406Z,15.8
2022-09-16T11:03:01.077Z,15.9
2022-09-16T11:04:01.746Z,15.9
2022-09-16T11:05:01.679Z,16
2022-09-16T11:06:01.418Z,16
2022-09-16T11:07:01.048Z,16
2022-09-16T11:08:01.448Z,16
2022-09-16T11:09:01.032Z,16
2022-09-16T11:10:01.130Z,16
2022-09-16T11:11:01.135Z,16
2022-09-16T11:12:00.842Z,16
2022-09-16T11:13:00.515Z,15.9
2022-09-16T11:14:00.296Z,16
2022-09-16T11:15:00.009Z,16
2022-09-16T11:15:59.795Z,16
2022-09-16T11:17:01.459Z,16
2022-09-16T11:18:01.026Z,16
2022-09-16T11:19:01.029Z,16
2022-09-16T11:20:03.683Z,16
2022-09-16T11:21:01.086Z,16.1
2022-09-16T11:22:01.805Z,16.1
2022-09-16T11:23:02.044Z,16.1
2022-09-16T11:24:01.714Z,16.1
2022-09-16T11:25:01.120Z,16.1
2022-09-16T11:26:01.042Z,16.1
2022-09-16T11:27:01.553Z,16.1
2022-09-16T11:28:01.130Z,16.2
2022-09-16T11:29:01.251Z,16.2
2022-09-16T11:30:01.138Z,16.3
2022-09-16T11:31:01.063Z,16.3
2022-09-16T11:32:01.010Z,16.3
2022-09-16T11:33:02.942Z,16.3
2022-09-16T11:34:02.392Z,16.3
2022-09-16T11:35:01.122Z,16.3
2022-09-16T11:36:01.463Z,16.3
2022-09-16T11:37:01.466Z,16.3
2022-09-16T11:38:01.233Z,16.3
2022-09-16T11:39:01.552Z,16.3
2022-09-16T11:40:01.622Z,16.3
2022-09-16T11:41:01.114Z,16.3
2022-09-16T11:42:01.121Z,16.3
2022-09-16T11:43:01.506Z,16.3
2022-09-16T11:44:01.123Z,16.3
2022-09-16T11:45:01.180Z,16.3
2022-09-16T11:46:01.441Z,16.3
2022-09-16T11:47:01.119Z,16.2
2022-09-16T11:48:01.059Z,16.2
2022-09-16T11:49:01.073Z,16.3
2022-09-16T11:50:01.072Z,16.2
2022-09-16T11:51:01.446Z,16.2
2022-09-16T11:52:00.667Z,16.2
2022-09-16T11:53:04.816Z,16.1
2022-09-16T11:54:01.908Z,16.1
2022-09-16T11:55:01.212Z,16.2
2022-09-16T11:56:01.184Z,16.3
2022-09-16T11:57:01.031Z,16.2
2022-09-16T11:58:01.177Z,16.2
2022-09-16T11:59:01.415Z,16.2
2022-09-16T12:00:01.384Z,16.2
2022-09-16T12:01:02.196Z,16.1
2022-09-16T12:02:01.150Z,16.1
2022-09-16T12:03:03.552Z,16.1
2022-09-16T12:04:01.439Z,16.1
2022-09-16T12:05:01.546Z,16.1
2022-09-16T12:06:01.082Z,16.1
2022-09-16T12:07:01.119Z,16.1
2022-09-16T12:08:04.806Z,16.1
2022-09-16T12:09:01.404Z,16.1
2022-09-16T12:10:01.515Z,16.1
2022-09-16T12:11:01.711Z,16
2022-09-16T12:12:02.126Z,16
2022-09-16T12:13:08.049Z,16
2022-09-16T12:14:06.079Z,16
2022-09-16T12:15:04.842Z,16
2022-09-16T12:16:01.273Z,16
2022-09-16T12:17:01.390Z,16
2022-09-16T12:18:10.264Z,15.9
2022-09-16T12:19:01.052Z,15.8
2022-09-16T12:20:01.059Z,15.8
2022-09-16T12:21:01.061Z,15.8
2022-09-16T12:22:01.086Z,15.8
2022-09-16T12:23:11.578Z,15.8
2022-09-16T12:24:03.833Z,15.8
2022-09-16T12:25:01.152Z,15.7
2022-09-16T12:26:01.471Z,15.7
2022-09-16T12:27:01.395Z,15.7
2022-09-16T12:28:14.166Z,15.7
2022-09-16T12:29:01.124Z,15.7
2022-09-16T12:30:01.136Z,15.8
2022-09-16T12:31:01.220Z,15.8
2022-09-16T12:32:01.961Z,15.9
2022-09-16T12:33:16.926Z,16
2022-09-16T12:34:01.042Z,16
2022-09-16T12:35:00.569Z,16
2022-09-16T12:36:00.139Z,16.1
2022-09-16T12:36:59.679Z,16.1
2022-09-16T12:38:01.331Z,16.1
2022-09-16T12:39:02.004Z,16.1
2022-09-16T12:40:02.069Z,16.2
2022-09-16T12:41:01.107Z,16.3
2022-09-16T12:42:01.726Z,16.3
2022-09-16T12:43:01.128Z,16.3
2022-09-16T12:44:16.989Z,16.4
2022-09-16T12:45:00.807Z,16.5
2022-09-16T12:46:00.468Z,16.5
2022-09-16T12:47:00.153Z,16.5
2022-09-16T12:47:59.743Z,16.6
2022-09-16T12:49:01.426Z,16.6
2022-09-16T12:50:01.265Z,16.7
2022-09-16T12:51:01.097Z,16.8
2022-09-16T12:52:01.079Z,16.8
2022-09-16T12:53:01.070Z,16.8
2022-09-16T12:54:01.070Z,16.9
2022-09-16T12:55:08.975Z,16.9
2022-09-16T12:56:01.101Z,17
2022-09-16T12:57:01.115Z,17
2022-09-16T12:58:01.127Z,17.1
2022-09-16T12:59:01.120Z,17.1
2022-09-16T13:00:01.457Z,17.1
2022-09-16T13:01:01.923Z,17.1
2022-09-16T13:02:01.595Z,17.1
2022-09-16T13:03:01.167Z,17.2
2022-09-16T13:04:01.027Z,17.1
2022-09-16T13:05:01.050Z,17.1
2022-09-16T13:06:01.028Z,17.1
2022-09-16T13:07:01.375Z,17.1
2022-09-16T13:08:01.378Z,17
2022-09-16T13:09:01.758Z,17
2022-09-16T13:10:01.354Z,17
2022-09-16T13:11:35.502Z,17
2022-09-16T13:12:36.692Z,17
2022-09-16T13:13:01.308Z,16.9
2022-09-16T13:14:03.117Z,16.8
2022-09-16T13:15:00.998Z,16.8
2022-09-16T13:16:01.625Z,16.8
2022-09-16T13:17:01.504Z,16.8
2022-09-16T13:18:01.155Z,16.8
2022-09-16T13:19:01.244Z,16.8
2022-09-16T13:20:01.149Z,16.9
2022-09-16T13:21:01.599Z,16.9
2022-09-16T13:22:01.845Z,16.9
2022-09-16T13:23:01.785Z,17
2022-09-16T13:24:01.443Z,17
2022-09-16T13:25:06.105Z,17